Time;durP1;ratioP1;P1;durP2;ratioP2;P2;SDS_P1;SDS_P2;PMS_P1;PMS_P2;Temp;Humidity;BMP_temperature;BMP_pressure;BME280_temperature;BME280_humidity;BME280_pressure;Samples;Min_cycle;Max_cycle;Signal;HPM_P1;HPM_P2
2021/10/08 00:01:34;;;;;;;14.50;8.10;;;;;;;5.05;64.50;102163.95;94050;1196;78201;-67
2021/10/08 00:03:38;;;;;;;16.00;8.40;;;;;;;5.07;64.57;102162.88;94047;1196;81595;-67
2021/10/08 00:05:42;;;;;;;15.00;7.30;;;;;;;5.10;64.52;102164.98;93986;1195;98442;-68
2021/10/08 00:07:46;;;;;;;17.40;8.70;;;;;;;5.09;64.65;102164.56;94059;1195;87453;-66
2021/10/08 00:09:53;;;;;;;13.40;8.30;;;;;;;5.07;64.63;102163.08;94020;1195;94458;-68
2021/10/08 00:11:58;;;;;;;14.40;7.80;;;;;;;5.07;64.57;102171.50;94051;1196;78970;-68
2021/10/08 00:14:03;;;;;;;16.00;8.00;;;;;;;5.05;64.60;102168.59;94068;1195;81146;-67
2021/10/08 00:16:07;;;;;;;16.70;7.90;;;;;;;4.99;64.76;102172.04;94071;1195;100575;-65
2021/10/08 00:18:11;;;;;;;14.30;8.20;;;;;;;4.94;64.87;102175.64;94000;1195;88565;-66
2021/10/08 00:20:16;;;;;;;16.10;8.40;;;;;;;4.93;64.87;102177.69;94040;1196;94463;-66
2021/10/08 00:22:20;;;;;;;17.70;8.80;;;;;;;4.95;65.01;102177.00;94063;1196;79071;-66
2021/10/08 00:24:24;;;;;;;20.00;9.10;;;;;;;4.95;65.15;102182.38;94056;1195;82228;-65
2021/10/08 00:26:28;;;;;;;17.90;9.60;;;;;;;4.93;65.24;102186.09;94015;1195;97764;-69
2021/10/08 00:28:35;;;;;;;21.10;9.30;;;;;;;4.85;65.35;102181.09;94076;1196;86659;-70
2021/10/08 00:30:40;;;;;;;20.10;9.20;;;;;;;4.83;65.46;102180.68;94007;1195;93602;-68
2021/10/08 00:32:44;;;;;;;20.10;9.00;;;;;;;4.77;65.58;102185.78;94032;1195;78719;-68
2021/10/08 00:34:54;;;;;;;14.60;8.20;;;;;;;4.73;65.60;102185.02;94037;1196;81572;-68
2021/10/08 00:36:59;;;;;;;16.40;8.90;;;;;;;4.73;65.66;102190.52;94027;1195;99613;-66
2021/10/08 00:39:04;;;;;;;16.40;8.40;;;;;;;4.69;65.78;102185.64;94121;1195;87410;-65
2021/10/08 00:41:10;;;;;;;15.50;8.40;;;;;;;4.68;65.75;102188.02;94032;1195;95171;-66
2021/10/08 00:43:18;;;;;;;16.40;9.20;;;;;;;4.69;65.95;102184.89;94083;1196;78591;-66
2021/10/08 00:45:23;;;;;;;18.40;9.10;;;;;;;4.67;66.00;102189.34;94086;1195;81492;-68
2021/10/08 00:47:30;;;;;;;19.00;9.80;;;;;;;4.66;66.11;102190.87;94052;1196;100524;-68
2021/10/08 00:49:34;;;;;;;18.70;9.20;;;;;;;4.67;66.12;102190.77;94057;1195;87412;-67
2021/10/08 00:51:38;;;;;;;19.70;9.80;;;;;;;4.68;66.01;102189.48;94033;1196;94428;-65
2021/10/08 00:53:42;;;;;;;15.20;8.40;;;;;;;4.66;66.01;102191.19;94059;1196;77926;-65
2021/10/08 00:55:50;;;;;;;16.00;8.90;;;;;;;4.64;66.23;102189.23;94068;1195;82048;-69
2021/10/08 00:57:55;;;;;;;19.80;9.10;;;;;;;4.60;65.97;102191.45;94115;1196;98761;-69
2021/10/08 01:00:02;;;;;;;18.00;9.10;;;;;;;4.59;66.26;102195.80;94083;1195;88660;-67
2021/10/08 01:02:06;;;;;;;18.10;9.10;;;;;;;4.54;66.21;102200.08;94075;1196;93837;-67
2021/10/08 01:04:13;;;;;;;16.60;8.80;;;;;;;4.51;66.31;102202.06;94070;1196;78033;-63
2021/10/08 01:06:17;;;;;;;14.30;8.60;;;;;;;4.46;66.53;102204.91;94096;1196;82002;-66
2021/10/08 01:08:21;;;;;;;16.10;9.40;;;;;;;4.39;66.55;102204.52;94045;1196;97436;-66
2021/10/08 01:10:25;;;;;;;17.30;9.00;;;;;;;4.35;66.66;102205.39;94102;1196;87883;-68
2021/10/08 01:12:29;;;;;;;16.30;8.80;;;;;;;4.29;66.56;102204.73;94111;1196;94735;-70
2021/10/08 01:14:36;;;;;;;15.30;8.70;;;;;;;4.26;66.54;102203.52;94059;1195;81378;-69
2021/10/08 01:16:40;;;;;;;15.40;8.70;;;;;;;4.27;66.85;102206.25;94080;1196;81749;-69
2021/10/08 01:18:47;;;;;;;17.30;9.30;;;;;;;4.25;66.87;102206.06;94068;1196;100230;-69
2021/10/08 01:20:55;;;;;;;14.20;8.40;;;;;;;4.26;66.92;102203.35;94053;1195;88535;-68
2021/10/08 01:23:00;;;;;;;17.10;8.60;;;;;;;4.21;67.05;102200.46;94140;1195;93108;-66
2021/10/08 01:25:07;;;;;;;20.20;8.60;;;;;;;4.20;66.97;102203.36;94071;1196;76410;-67
2021/10/08 01:27:14;;;;;;;15.40;8.00;;;;;;;4.16;67.07;102204.67;94074;1195;82380;-69
2021/10/08 01:29:18;;;;;;;15.10;7.90;;;;;;;4.14;67.05;102201.58;94084;1195;99901;-69
2021/10/08 01:31:25;;;;;;;16.20;8.50;;;;;;;4.14;67.12;102201.20;94056;1196;88019;-66
2021/10/08 01:33:29;;;;;;;19.70;8.10;;;;;;;4.15;67.24;102200.46;94089;1195;94108;-66
2021/10/08 01:35:33;;;;;;;14.70;7.90;;;;;;;4.12;67.28;102208.35;94096;1195;78043;-69
2021/10/08 01:37:38;;;;;;;15.80;8.30;;;;;;;4.11;67.34;102210.17;94026;1195;81153;-69
2021/10/08 01:39:42;;;;;;;13.80;7.80;;;;;;;4.11;67.33;102208.93;94076;1196;99788;-69
2021/10/08 01:41:49;;;;;;;18.10;7.50;;;;;;;4.13;67.23;102212.23;94016;1195;87813;-68
2021/10/08 01:43:53;;;;;;;14.80;7.80;;;;;;;4.11;67.27;102215.73;94041;1195;93849;-69
2021/10/08 01:45:57;;;;;;;13.00;7.50;;;;;;;4.08;67.47;102220.16;94042;1196;78251;-66
2021/10/08 01:48:06;;;;;;;15.20;7.50;;;;;;;4.05;67.39;102225.42;94088;1195;80684;-67
2021/10/08 01:50:12;;;;;;;15.10;7.80;;;;;;;3.99;67.44;102224.20;94119;1196;99203;-69
2021/10/08 01:52:17;;;;;;;17.30;7.60;;;;;;;3.95;67.61;102224.63;93710;1196;87341;-69
2021/10/08 01:54:21;;;;;;;14.00;8.20;;;;;;;3.94;67.73;102226.35;94057;1195;93860;-69
2021/10/08 01:56:27;;;;;;;14.90;7.80;;;;;;;3.91;67.76;102221.52;94008;1195;77762;-65
2021/10/08 01:58:31;;;;;;;17.40;8.00;;;;;;;3.95;67.86;102226.10;94115;1196;80611;-66
2021/10/08 02:00:35;;;;;;;17.40;9.00;;;;;;;3.97;67.80;102225.23;94057;1196;98061;-67
2021/10/08 02:02:39;;;;;;;16.80;8.70;;;;;;;3.96;67.83;102229.05;94080;1195;87461;-66
2021/10/08 02:04:43;;;;;;;16.60;7.90;;;;;;;3.94;67.88;102228.11;94055;1195;92591;-66
2021/10/08 02:06:47;;;;;;;14.60;7.60;;;;;;;3.93;67.99;102226.41;94019;1196;81088;-70
2021/10/08 02:08:52;;;;;;;17.00;8.40;;;;;;;3.92;67.87;102225.96;94077;1195;81488;-69
2021/10/08 02:10:56;;;;;;;14.90;8.20;;;;;;;3.89;68.05;102227.77;94074;1195;99095;-65
2021/10/08 02:13:00;;;;;;;14.20;7.90;;;;;;;3.84;68.21;102228.44;94082;1195;88343;-66
2021/10/08 02:15:05;;;;;;;17.80;7.90;;;;;;;3.86;68.07;102225.09;94025;1195;92731;-68
2021/10/08 02:17:09;;;;;;;17.60;7.80;;;;;;;3.86;68.15;102228.30;94067;1196;77131;-68
2021/10/08 02:19:16;;;;;;;14.80;7.80;;;;;;;3.84;68.25;102234.29;94082;1196;80950;-68
2021/10/08 02:21:21;;;;;;;13.90;7.30;;;;;;;3.83;68.18;102244.54;94060;1195;100351;-66
2021/10/08 02:23:28;;;;;;;16.40;7.90;;;;;;;3.80;68.29;102245.66;94126;1196;87496;-66
2021/10/08 02:25:32;;;;;;;14.70;7.90;;;;;;;3.75;68.42;102245.23;94087;1195;93907;-69
2021/10/08 02:27:36;;;;;;;16.10;7.60;;;;;;;3.73;68.46;102245.24;94080;1195;79852;-69
2021/10/08 02:29:41;;;;;;;12.60;8.10;;;;;;;3.71;68.29;102249.60;94148;1195;80378;-68
2021/10/08 02:31:45;;;;;;;14.40;7.60;;;;;;;3.71;68.60;102249.47;94097;1195;100159;-68
2021/10/08 02:33:52;;;;;;;15.20;8.40;;;;;;;3.72;68.50;102248.87;94094;1196;86423;-69
2021/10/08 02:35:56;;;;;;;14.10;7.60;;;;;;;3.68;68.76;102253.89;94048;1195;94539;-66
2021/10/08 02:38:03;;;;;;;15.20;7.10;;;;;;;3.66;68.62;102256.53;94119;1196;78503;-65
2021/10/08 02:40:09;;;;;;;16.00;7.70;;;;;;;3.65;68.62;102256.77;94097;1195;82141;-66
2021/10/08 02:42:16;;;;;;;14.90;6.60;;;;;;;3.65;68.63;102253.75;94082;1195;99227;-65
2021/10/08 02:44:21;;;;;;;13.30;7.60;;;;;;;3.66;68.69;102249.79;94088;1196;88142;-65
2021/10/08 02:46:25;;;;;;;14.40;7.40;;;;;;;3.65;68.52;102254.12;94032;1196;92965;-66
2021/10/08 02:48:32;;;;;;;12.10;7.20;;;;;;;3.65;68.65;102256.59;94054;1195;78465;-65
2021/10/08 02:50:36;;;;;;;13.60;7.70;;;;;;;3.66;68.56;102253.00;94117;1195;82224;-66
2021/10/08 02:52:40;;;;;;;17.70;7.90;;;;;;;3.63;68.57;102257.98;94100;1196;100134;-67
2021/10/08 02:54:44;;;;;;;11.60;7.30;;;;;;;3.62;68.65;102258.94;94109;1196;86519;-66
2021/10/08 02:56:48;;;;;;;16.60;7.00;;;;;;;3.58;68.59;102264.71;94072;1196;93707;-67
2021/10/08 02:58:55;;;;;;;16.00;7.10;;;;;;;3.56;68.54;102270.90;94138;1196;81825;-65
2021/10/08 03:00:59;;;;;;;19.50;6.90;;;;;;;3.55;68.63;102273.65;94082;1196;82370;-65
2021/10/08 03:03:06;;;;;;;12.70;6.90;;;;;;;3.58;68.65;102278.28;94096;1195;99380;-67
2021/10/08 03:05:11;;;;;;;12.60;6.80;;;;;;;3.58;68.62;102280.41;94123;1187;87173;-66
2021/10/08 03:07:18;;;;;;;15.20;6.90;;;;;;;3.58;68.64;102280.04;94079;1195;94576;-66
2021/10/08 03:09:22;;;;;;;13.50;6.70;;;;;;;3.54;68.79;102284.21;94064;1196;78630;-66
2021/10/08 03:11:26;;;;;;;14.60;6.90;;;;;;;3.48;68.67;102286.21;94122;1195;80462;-68
2021/10/08 03:13:30;;;;;;;15.20;6.60;;;;;;;3.45;68.71;102290.34;94107;1195;100760;-69
2021/10/08 03:15:37;;;;;;;14.40;7.60;;;;;;;3.42;68.79;102292.45;94101;1196;87640;-66
2021/10/08 03:17:41;;;;;;;14.00;7.00;;;;;;;3.41;68.78;102287.70;94113;1195;92913;-66
2021/10/08 03:19:46;;;;;;;15.40;7.40;;;;;;;3.41;68.75;102284.86;94148;1195;77092;-67
2021/10/08 03:21:50;;;;;;;11.10;6.80;;;;;;;3.40;68.75;102283.14;94146;1196;80323;-67
2021/10/08 03:23:54;;;;;;;10.90;6.40;;;;;;;3.37;69.01;102282.64;94103;1196;99863;-66
2021/10/08 03:25:58;;;;;;;14.20;6.60;;;;;;;3.31;69.04;102285.88;94095;1196;87028;-69
2021/10/08 03:28:02;;;;;;;14.20;6.40;;;;;;;3.27;68.93;102285.57;94114;1196;94363;-68
2021/10/08 03:30:14;;;;;;;13.70;7.00;;;;;;;3.26;68.83;102286.59;94225;1195;77971;-66
2021/10/08 03:32:19;;;;;;;11.60;6.80;;;;;;;3.22;69.21;102292.52;94104;1195;80350;-66
2021/10/08 03:34:23;;;;;;;12.60;7.10;;;;;;;3.19;69.05;102290.59;94101;1195;98618;-66
2021/10/08 03:36:30;;;;;;;13.70;6.90;;;;;;;3.22;69.08;102297.84;94120;1195;85933;-66
2021/10/08 03:38:35;;;;;;;12.70;7.80;;;;;;;3.23;69.03;102297.09;94093;1196;93415;-66
2021/10/08 03:40:41;;;;;;;12.00;6.50;;;;;;;3.23;69.09;102296.55;94118;1196;78119;-66
2021/10/08 03:42:45;;;;;;;19.00;8.00;;;;;;;3.20;69.06;102300.98;94137;1195;81547;-67
2021/10/08 03:44:55;;;;;;;13.20;6.90;;;;;;;3.20;69.04;102301.35;94087;1196;98404;-66
2021/10/08 03:46:59;;;;;;;11.70;6.50;;;;;;;3.18;69.18;102303.80;94148;1196;86659;-69
2021/10/08 03:49:13;;;;;;;12.60;6.40;;;;;;;3.15;69.13;102301.17;94091;1195;93514;-69
2021/10/08 03:51:19;;;;;;;;;;;;;;;3.14;69.23;102305.34;94120;1196;78231;-69
2021/10/08 03:53:23;;;;;;;11.10;6.30;;;;;;;3.14;69.20;102306.54;94095;1196;82890;-68
2021/10/08 03:55:27;;;;;;;13.30;7.10;;;;;;;3.15;69.20;102304.55;94084;1196;98606;-68
2021/10/08 03:57:34;;;;;;;13.00;6.90;;;;;;;3.13;69.42;102309.08;94117;1195;88379;-68
2021/10/08 03:59:38;;;;;;;13.40;6.60;;;;;;;3.10;69.40;102311.27;94133;1195;93832;-69
2021/10/08 04:01:42;;;;;;;15.60;7.40;;;;;;;3.05;69.28;102304.98;94104;1195;76319;-68
2021/10/08 04:03:46;;;;;;;11.50;6.70;;;;;;;3.06;69.25;102304.75;94138;1195;83189;-68
2021/10/08 04:05:53;;;;;;;15.60;7.40;;;;;;;3.03;69.39;102303.67;94135;1195;98897;-68
2021/10/08 04:07:57;;;;;;;10.60;6.80;;;;;;;3.04;69.33;102304.17;94089;1196;88294;-65
2021/10/08 04:10:06;;;;;;;11.60;7.20;;;;;;;3.03;69.29;102303.65;94111;1196;93246;-69
2021/10/08 04:12:13;;;;;;;13.20;6.90;;;;;;;3.04;69.42;102308.10;94088;1196;78002;-68
2021/10/08 04:14:18;;;;;;;17.20;7.80;;;;;;;2.99;69.48;102307.64;94150;1196;80899;-69
2021/10/08 04:16:23;;;;;;;14.40;6.60;;;;;;;3.01;69.41;102305.40;94125;1196;98268;-68
2021/10/08 04:18:27;;;;;;;13.10;6.50;;;;;;;3.02;69.39;102307.34;94088;1195;85409;-68
2021/10/08 04:20:31;;;;;;;15.40;6.90;;;;;;;2.99;69.41;102308.73;94095;1195;94833;-68
2021/10/08 04:22:35;;;;;;;14.00;6.20;;;;;;;2.96;69.40;102307.98;94099;1195;79643;-67
2021/10/08 04:24:39;;;;;;;13.80;6.50;;;;;;;2.95;69.48;102308.08;94106;1196;80657;-67
2021/10/08 04:26:43;;;;;;;18.00;7.20;;;;;;;2.96;69.48;102311.77;94112;1195;99493;-67
2021/10/08 04:28:47;;;;;;;13.40;7.00;;;;;;;2.93;69.57;102315.14;94166;1195;88066;-67
2021/10/08 04:30:51;;;;;;;14.70;8.00;;;;;;;2.90;69.49;102313.52;94091;1195;94767;-66
2021/10/08 04:32:55;;;;;;;11.70;6.70;;;;;;;2.90;69.54;102317.59;94082;1195;78977;-66
2021/10/08 04:35:02;;;;;;;13.90;6.90;;;;;;;2.85;69.67;102318.30;94147;1195;80542;-68
2021/10/08 04:37:06;;;;;;;13.20;7.50;;;;;;;2.78;69.61;102324.05;94087;1195;99937;-68
2021/10/08 04:39:10;;;;;;;13.30;6.60;;;;;;;2.73;69.54;102324.23;94141;1195;86786;-68
2021/10/08 04:41:14;;;;;;;12.20;7.30;;;;;;;2.69;69.60;102322.63;94096;1195;94389;-69
2021/10/08 04:43:18;;;;;;;13.90;7.30;;;;;;;2.67;69.74;102318.67;93786;1196;77996;-68
2021/10/08 04:45:22;;;;;;;12.80;6.80;;;;;;;2.65;69.87;102316.15;94125;1196;81755;-67
2021/10/08 04:47:26;;;;;;;17.30;7.00;;;;;;;2.62;69.91;102319.35;94073;1196;99120;-69
2021/10/08 04:49:34;;;;;;;15.20;7.10;;;;;;;2.58;69.96;102319.43;94130;1195;86371;-71
2021/10/08 04:51:40;;;;;;;13.90;6.60;;;;;;;2.59;69.93;102328.59;94062;1195;92294;-70
2021/10/08 04:53:44;;;;;;;16.10;7.20;;;;;;;2.62;69.98;102328.98;94146;1196;80453;-70
2021/10/08 04:55:50;;;;;;;15.80;6.70;;;;;;;2.56;70.14;102332.17;94119;1195;82621;-70
2021/10/08 04:57:54;;;;;;;13.90;7.60;;;;;;;2.53;70.15;102331.48;94266;1196;99094;-71
2021/10/08 04:59:58;;;;;;;12.90;6.90;;;;;;;2.45;70.33;102335.51;94136;1195;87676;-68
2021/10/08 05:02:05;;;;;;;17.30;7.80;;;;;;;2.37;70.49;102335.05;94146;1195;93578;-71
2021/10/08 05:04:09;;;;;;;17.80;8.20;;;;;;;2.30;70.61;102335.29;94208;1195;77296;-71
2021/10/08 05:06:16;;;;;;;12.90;7.30;;;;;;;2.26;70.73;102334.12;94151;1196;80055;-71
2021/10/08 05:08:21;;;;;;;14.20;7.00;;;;;;;2.22;70.81;102333.10;94217;1196;99397;-70
2021/10/08 05:10:25;;;;;;;15.20;7.90;;;;;;;2.19;71.03;102335.06;94176;1196;87297;-71
2021/10/08 05:12:32;;;;;;;11.60;7.20;;;;;;;2.22;71.17;102335.74;94134;1196;95020;-71
2021/10/08 05:14:36;;;;;;;15.50;7.70;;;;;;;2.31;71.20;102334.87;94136;1195;78342;-71
2021/10/08 05:16:41;;;;;;;12.90;7.00;;;;;;;2.35;71.22;102338.73;94202;1195;80425;-69
2021/10/08 05:18:45;;;;;;;12.70;7.30;;;;;;;2.44;71.23;102343.92;94111;1195;99077;-69
2021/10/08 05:20:49;;;;;;;14.40;7.40;;;;;;;2.49;71.15;102344.11;94167;1195;87431;-68
2021/10/08 05:22:53;;;;;;;14.60;7.30;;;;;;;2.58;71.25;102344.46;94148;1195;94162;-70
2021/10/08 05:24:57;;;;;;;16.90;7.00;;;;;;;2.64;71.16;102341.12;94027;1196;79069;-70
2021/10/08 05:27:02;;;;;;;18.20;8.60;;;;;;;2.71;71.23;102344.77;94151;1195;82181;-70
2021/10/08 05:29:09;;;;;;;17.10;7.70;;;;;;;2.81;71.08;102340.80;94159;1195;98928;-71
2021/10/08 05:31:13;;;;;;;13.20;7.80;;;;;;;2.93;71.05;102343.61;94124;1195;87561;-71
2021/10/08 05:33:20;;;;;;;12.20;7.10;;;;;;;2.97;71.08;102343.73;94175;1196;93252;-71
2021/10/08 05:35:24;;;;;;;14.40;8.10;;;;;;;3.05;71.13;102349.46;94141;1195;78643;-71
2021/10/08 05:37:28;;;;;;;14.90;8.40;;;;;;;3.52;71.04;102352.39;93818;1196;79436;-70
2021/10/08 05:39:35;;;;;;;18.00;8.60;;;;;;;4.35;70.97;102357.30;94106;1195;100237;-70
2021/10/08 05:41:39;;;;;;;15.60;8.60;;;;;;;5.26;70.24;102353.91;94126;1195;87384;-71
2021/10/08 05:43:43;;;;;;;14.10;7.80;;;;;;;5.75;69.54;102356.61;94142;1195;93665;-71
2021/10/08 05:45:47;;;;;;;15.30;7.50;;;;;;;5.92;69.03;102362.55;94174;1196;77793;-70
2021/10/08 05:47:51;;;;;;;15.80;7.00;;;;;;;5.82;68.26;102363.79;94167;1196;81483;-70
2021/10/08 05:49:55;;;;;;;13.90;6.70;;;;;;;5.62;67.94;102362.36;94140;1196;97940;-70
2021/10/08 05:52:02;;;;;;;16.00;7.50;;;;;;;5.42;67.59;102361.48;94101;1195;87136;-70
2021/10/08 05:54:06;;;;;;;11.60;6.90;;;;;;;5.25;67.49;102363.37;94146;1195;94115;-71
2021/10/08 05:56:10;;;;;;;16.10;7.10;;;;;;;5.20;67.55;102364.80;94165;1195;78906;-71
2021/10/08 05:58:14;;;;;;;16.00;7.60;;;;;;;5.29;67.32;102361.00;94196;1195;81070;-71
2021/10/08 06:00:21;;;;;;;14.50;7.00;;;;;;;5.29;67.30;102361.18;94152;1195;99992;-70
2021/10/08 06:02:25;;;;;;;13.00;7.30;;;;;;;5.48;67.28;102365.16;94146;1195;86287;-70
2021/10/08 06:04:29;;;;;;;13.80;7.00;;;;;;;5.79;67.27;102369.52;94130;1195;93666;-70
2021/10/08 06:06:33;;;;;;;12.30;7.10;;;;;;;5.92;66.89;102374.34;94122;1196;79168;-70
2021/10/08 06:08:37;;;;;;;14.00;8.40;;;;;;;6.04;66.45;102381.02;94143;1195;81593;-69
2021/10/08 06:10:42;;;;;;;16.00;8.30;;;;;;;6.18;66.23;102383.48;94159;1195;99810;-70
2021/10/08 06:12:46;;;;;;;15.80;7.60;;;;;;;6.26;65.95;102384.13;94107;1195;87745;-69
2021/10/08 06:14:54;;;;;;;15.10;7.60;;;;;;;6.07;65.62;102382.22;94118;1195;94521;-70
2021/10/08 06:16:57;;;;;;;12.30;6.80;;;;;;;5.97;65.65;102380.42;94138;1195;76836;-70
2021/10/08 06:19:02;;;;;;;11.60;7.10;;;;;;;5.97;65.59;102384.05;94193;1195;80730;-71
2021/10/08 06:21:09;;;;;;;14.00;7.20;;;;;;;6.03;65.48;102385.14;94148;1196;98574;-70
2021/10/08 06:23:16;;;;;;;12.20;6.70;;;;;;;6.52;65.74;102388.09;94172;1180;86417;-70
2021/10/08 06:25:21;;;;;;;13.30;7.50;;;;;;;7.54;65.41;102386.96;94176;1195;93199;-72
2021/10/08 06:27:25;;;;;;;16.10;7.40;;;;;;;7.66;64.13;102387.42;94104;1196;78044;-70
2021/10/08 06:29:29;;;;;;;12.30;6.70;;;;;;;7.38;63.81;102390.42;94236;1195;81205;-71
2021/10/08 06:31:33;;;;;;;13.00;7.20;;;;;;;7.14;63.80;102393.36;94175;1195;99293;-70
2021/10/08 06:33:37;;;;;;;17.00;7.40;;;;;;;6.90;63.11;102396.30;94214;1196;87594;-71
2021/10/08 06:35:42;;;;;;;13.90;7.20;;;;;;;6.72;63.16;102397.14;94204;1195;94024;-71
2021/10/08 06:37:46;;;;;;;13.70;6.80;;;;;;;6.67;63.25;102398.64;94219;1196;78243;-71
2021/10/08 06:39:53;;;;;;;12.20;7.10;;;;;;;6.64;63.40;102402.45;94255;1196;80978;-70
2021/10/08 06:41:57;;;;;;;13.10;7.00;;;;;;;6.66;63.44;102408.58;94230;1196;98167;-70
2021/10/08 06:44:06;;;;;;;12.30;6.80;;;;;;;6.70;63.12;102407.89;94215;1196;87218;-70
2021/10/08 06:46:12;;;;;;;16.00;7.70;;;;;;;6.75;63.31;102408.98;94226;1195;91853;-71
2021/10/08 06:48:16;;;;;;;21.50;8.30;;;;;;;6.84;63.13;102416.88;94210;1195;77229;-71
2021/10/08 06:50:21;;;;;;;15.70;7.60;;;;;;;6.99;62.90;102417.85;94213;1195;80886;-71
2021/10/08 06:52:25;;;;;;;16.40;8.20;;;;;;;7.07;62.46;102422.77;94256;1195;99626;-71
2021/10/08 06:54:29;;;;;;;15.60;8.30;;;;;;;7.07;62.38;102425.79;94252;1195;86822;-71
2021/10/08 06:56:33;;;;;;;17.70;8.50;;;;;;;7.01;62.21;102428.42;94218;1196;92287;-71
2021/10/08 06:58:37;;;;;;;15.60;7.80;;;;;;;6.96;62.02;102431.00;94235;1196;78548;-71
2021/10/08 07:00:41;;;;;;;14.20;7.20;;;;;;;6.95;62.15;102429.63;94215;1195;81792;-70
2021/10/08 07:02:51;;;;;;;12.30;7.10;;;;;;;6.97;62.28;102434.46;94221;1195;98339;-70
2021/10/08 07:04:55;;;;;;;17.40;8.00;;;;;;;6.94;61.93;102436.51;94162;1195;87400;-70
2021/10/08 07:06:59;;;;;;;16.60;7.50;;;;;;;7.00;61.84;102435.45;94202;1196;93949;-71
2021/10/08 07:09:06;;;;;;;17.50;6.60;;;;;;;7.07;61.75;102433.88;94204;1195;78869;-70
2021/10/08 07:11:13;;;;;;;17.00;7.40;;;;;;;7.14;61.78;102435.13;94198;1195;81816;-70
2021/10/08 07:13:17;;;;;;;13.20;7.60;;;;;;;7.22;61.77;102433.04;94212;1195;99649;-70
2021/10/08 07:15:22;;;;;;;13.40;7.60;;;;;;;7.38;61.68;102435.58;94188;1195;87030;-70
2021/10/08 07:17:30;;;;;;;15.80;7.80;;;;;;;7.40;61.41;102440.27;94222;1195;94696;-71
2021/10/08 07:19:34;;;;;;;15.60;8.00;;;;;;;7.48;61.46;102438.35;94240;1196;79125;-70
2021/10/08 07:21:42;;;;;;;18.70;8.30;;;;;;;7.56;61.00;102437.93;94235;1195;80873;-71
2021/10/08 07:23:47;;;;;;;18.00;8.20;;;;;;;7.66;61.00;102439.94;94239;1195;98099;-70
2021/10/08 07:25:51;;;;;;;17.10;8.00;;;;;;;7.87;60.63;102444.21;94314;1195;87527;-70
2021/10/08 07:27:58;;;;;;;15.20;7.30;;;;;;;8.11;60.54;102443.04;94213;1196;93947;-69
2021/10/08 07:30:04;;;;;;;19.50;8.00;;;;;;;8.26;60.19;102449.70;94255;1195;78796;-70
2021/10/08 07:32:08;;;;;;;14.10;7.60;;;;;;;8.46;59.90;102448.63;94244;1195;81576;-70
2021/10/08 07:34:12;;;;;;;17.60;7.90;;;;;;;8.51;59.79;102450.16;94240;1195;99395;-70
2021/10/08 07:36:16;;;;;;;14.60;7.70;;;;;;;8.72;59.57;102453.05;94235;1195;87645;-70
2021/10/08 07:38:23;;;;;;;13.70;7.70;;;;;;;9.26;59.57;102453.64;94216;1195;93316;-71
2021/10/08 07:40:27;;;;;;;14.50;8.10;;;;;;;9.95;59.47;102443.23;94241;1196;77637;-72
2021/10/08 07:42:32;;;;;;;12.50;7.30;;;;;;;10.65;58.92;102448.48;93807;1195;81469;-71
2021/10/08 07:44:36;;;;;;;13.10;7.30;;;;;;;11.10;57.46;102450.53;94266;1195;99288;-71
2021/10/08 07:46:43;;;;;;;14.50;7.90;;;;;;;11.14;56.80;102450.77;94268;1195;86554;-70
2021/10/08 07:48:47;;;;;;;17.90;8.30;;;;;;;10.65;55.40;102453.00;94183;1196;93981;-69
2021/10/08 07:50:51;;;;;;;14.40;7.80;;;;;;;10.31;55.72;102451.92;94238;1195;78847;-72
2021/10/08 07:52:58;;;;;;;13.80;7.70;;;;;;;10.44;56.22;102452.02;94133;1196;82197;-71
2021/10/08 07:55:11;;;;;;;18.10;8.60;;;;;;;11.23;55.25;102453.30;94169;1195;100278;-71
2021/10/08 07:57:18;;;;;;;23.30;9.50;;;;;;;12.85;54.93;102453.66;94254;1195;88403;-70
2021/10/08 07:59:25;;;;;;;15.20;7.10;;;;;;;14.42;52.66;102453.03;94261;1196;94581;-71
2021/10/08 08:01:29;;;;;;;12.30;7.90;;;;;;;15.69;51.21;102448.54;94275;1195;77466;-71
2021/10/08 08:03:37;;;;;;;14.90;7.70;;;;;;;17.09;50.29;102450.61;94235;1195;81517;-71
2021/10/08 08:05:41;;;;;;;12.30;6.90;;;;;;;18.11;47.60;102445.27;94210;1196;99384;-71
2021/10/08 08:07:50;;;;;;;16.60;8.60;;;;;;;19.18;47.00;102445.21;94204;1195;87924;-71
2021/10/08 08:09:54;;;;;;;15.30;7.70;;;;;;;20.27;45.34;102444.98;94206;1196;94149;-72
2021/10/08 08:11:58;;;;;;;14.20;7.90;;;;;;;20.83;43.45;102447.01;93770;1196;82621;-72
2021/10/08 08:14:03;;;;;;;17.00;7.60;;;;;;;21.16;41.56;102447.24;93801;1195;81063;-75
2021/10/08 08:16:07;;;;;;;15.50;7.70;;;;;;;20.92;39.27;102450.58;94220;1196;99845;-74
2021/10/08 08:18:11;;;;;;;19.50;7.60;;;;;;;20.38;38.61;102447.04;94192;1196;87953;-74
2021/10/08 08:20:18;;;;;;;14.00;7.70;;;;;;;20.22;38.64;102448.42;94192;1196;93688;-73
2021/10/08 08:22:22;;;;;;;19.00;8.00;;;;;;;20.27;38.91;102445.16;94196;1195;79585;-70
2021/10/08 08:24:27;;;;;;;12.40;7.40;;;;;;;20.65;38.99;102447.04;94186;1196;82374;-76
2021/10/08 08:26:31;;;;;;;16.40;7.70;;;;;;;21.00;38.44;102449.38;94172;1195;99780;-70
2021/10/08 08:28:36;;;;;;;18.20;7.20;;;;;;;21.37;37.65;102450.90;94200;1196;86903;-74
2021/10/08 08:30:41;;;;;;;17.90;8.30;;;;;;;21.15;35.95;102454.33;94186;1195;92540;-65
2021/10/08 08:32:45;;;;;;;15.90;7.10;;;;;;;20.85;36.06;102455.05;94166;1195;79134;-65
2021/10/08 08:34:55;;;;;;;17.70;8.30;;;;;;;20.88;36.84;102458.73;94169;1196;81711;-67
2021/10/08 08:36:59;;;;;;;17.40;8.70;;;;;;;20.19;36.35;102456.29;94211;1196;99677;-82
2021/10/08 08:39:07;;;;;;;16.60;8.40;;;;;;;19.33;36.86;102453.01;94187;1195;87491;-78
2021/10/08 08:41:12;;;;;;;18.20;8.00;;;;;;;19.25;37.41;102455.98;93796;1195;93570;-68
2021/10/08 08:43:16;;;;;;;14.90;7.90;;;;;;;19.69;37.13;102456.16;93823;1195;79816;-71
2021/10/08 08:45:23;;;;;;;13.80;8.00;;;;;;;20.24;37.14;102452.95;94234;1196;82042;-73
2021/10/08 08:47:27;;;;;;;16.60;8.00;;;;;;;21.10;36.16;102457.53;94194;1195;99905;-70
2021/10/08 08:49:31;;;;;;;14.00;7.20;;;;;;;21.66;35.55;102460.01;94178;1195;86873;-69
2021/10/08 08:51:39;;;;;;;19.00;8.30;;;;;;;21.81;34.70;102455.59;94194;1196;94924;-70
2021/10/08 08:53:47;;;;;;;15.70;7.50;;;;;;;22.02;34.37;102456.09;94097;1195;78037;-68
2021/10/08 08:55:51;;;;;;;14.20;7.60;;;;;;;22.09;34.19;102455.61;94199;1195;81164;-71
2021/10/08 08:57:56;;;;;;;18.90;9.10;;;;;;;22.44;34.23;102449.36;94211;1196;98601;-69
2021/10/08 09:00:08;;;;;;;13.60;7.30;;;;;;;22.60;33.61;102453.33;94163;1181;87001;-73
2021/10/08 09:02:15;;;;;;;15.30;7.40;;;;;;;22.59;32.21;102455.79;94191;1196;95297;-72
2021/10/08 09:04:21;;;;;;;19.00;7.10;;;;;;;22.67;32.58;102454.46;94196;1196;79842;-75
2021/10/08 09:06:33;;;;;;;17.20;7.10;;;;;;;22.44;31.16;102456.48;94218;1196;81199;-75
2021/10/08 09:08:45;;;;;;;13.50;7.60;;;;;;;22.75;32.16;102448.95;94176;1196;99217;-68
2021/10/08 09:10:50;;;;;;;14.20;8.20;;;;;;;22.66;31.83;102449.08;94208;1195;88103;-68
2021/10/08 09:12:56;;;;;;;14.60;7.80;;;;;;;22.55;31.42;102448.30;94190;1195;94297;-70
2021/10/08 09:15:00;;;;;;;16.80;7.20;;;;;;;22.33;30.65;102451.52;94187;1195;79721;-72
2021/10/08 09:17:16;;;;;;;11.30;7.10;;;;;;;22.16;31.05;102448.39;94235;1195;81081;-70
2021/10/08 09:19:20;;;;;;;11.40;7.20;;;;;;;22.48;31.05;102444.85;94258;1195;99415;-71
2021/10/08 09:21:32;;;;;;;13.80;7.90;;;;;;;22.69;30.92;102446.54;94233;1196;87047;-71
2021/10/08 09:23:46;;;;;;;13.20;7.30;;;;;;;22.84;31.10;102442.72;94178;1195;93331;-72
2021/10/08 09:25:51;;;;;;;14.20;7.90;;;;;;;22.78;29.32;102447.41;94212;1195;79058;-71
2021/10/08 09:27:59;;;;;;;13.80;7.50;;;;;;;22.66;29.86;102449.23;94234;1180;80283;-71
2021/10/08 09:30:06;;;;;;;13.10;8.20;;;;;;;22.78;29.70;102451.56;94217;1195;99454;-71
2021/10/08 09:32:10;;;;;;;14.80;7.50;;;;;;;22.61;29.51;102452.18;94208;1196;86684;-72
2021/10/08 09:34:21;;;;;;;13.20;7.60;;;;;;;22.47;29.50;102447.66;94227;1195;93068;-71
2021/10/08 09:36:36;;;;;;;14.60;7.80;;;;;;;22.23;29.23;102448.63;94245;1196;79994;-78
2021/10/08 09:38:46;;;;;;;13.60;8.10;;;;;;;21.78;28.04;102454.36;94212;1189;81945;-77
2021/10/08 09:40:52;;;;;;;20.00;12.20;;;;;;;21.60;28.09;102451.70;94264;1195;98887;-70
2021/10/08 09:43:01;;;;;;;17.20;8.50;;;;;;;21.40;27.18;102451.41;94191;1196;87308;-70